createdAt,value
2018-08-30T00:00:35.153Z,3.20
2018-08-30T00:03:04.526Z,3.17
2018-08-30T00:05:33.273Z,2.77
2018-08-30T00:08:02.439Z,3.00
2018-08-30T00:10:31.087Z,2.70
2018-08-30T00:12:59.656Z,3.20
2018-08-30T00:15:28.282Z,3.07
2018-08-30T00:17:57.711Z,2.60
2018-08-30T00:20:26.285Z,2.70
2018-08-30T00:22:54.927Z,2.30
2018-08-30T00:25:24.491Z,2.80
2018-08-30T00:27:54.148Z,2.00
2018-08-30T00:30:23.353Z,2.77
2018-08-30T00:32:52.028Z,2.67
2018-08-30T00:35:20.635Z,2.17
2018-08-30T00:37:49.297Z,2.63
2018-08-30T00:40:18.643Z,2.03
2018-08-30T00:42:47.265Z,2.93
2018-08-30T00:45:16.559Z,2.50
2018-08-30T00:47:47.263Z,2.57
2018-08-30T00:50:16.017Z,2.70
2018-08-30T00:52:45.263Z,2.17
2018-08-30T00:55:14.987Z,2.60
2018-08-30T00:57:44.761Z,2.20
2018-08-30T01:00:14.018Z,2.53
2018-08-30T01:02:43.312Z,2.47
2018-08-30T01:05:12.008Z,2.67
2018-08-30T01:07:41.509Z,2.30
2018-08-30T01:10:11.134Z,2.50
2018-08-30T01:12:55.293Z,2.70
2018-08-30T01:15:25.698Z,2.90
2018-08-30T01:17:55.270Z,2.60
2018-08-30T01:20:24.864Z,2.67
2018-08-30T01:22:54.101Z,3.00
2018-08-30T01:25:22.996Z,2.73
2018-08-30T01:27:51.565Z,2.43
2018-08-30T01:30:20.851Z,2.80
2018-08-30T01:32:49.584Z,2.53
2018-08-30T01:35:18.773Z,1.90
2018-08-30T01:37:47.744Z,1.97
2018-08-30T01:40:16.607Z,1.90
2018-08-30T01:42:46.098Z,2.07
2018-08-30T01:45:15.718Z,2.03
2018-08-30T01:47:45.245Z,1.93
2018-08-30T01:50:14.843Z,2.30
2018-08-30T01:52:43.539Z,2.00
2018-08-30T01:55:12.933Z,2.40
2018-08-30T01:57:41.562Z,2.27
2018-08-30T02:00:10.732Z,2.43
2018-08-30T02:02:40.049Z,2.13
2018-08-30T02:05:08.882Z,1.90
2018-08-30T02:07:38.006Z,2.10
2018-08-30T02:10:06.886Z,2.33
2018-08-30T02:12:35.910Z,1.87
2018-08-30T02:15:05.387Z,2.57
2018-08-30T02:17:34.085Z,1.50
2018-08-30T02:20:02.718Z,1.80
2018-08-30T02:22:32.076Z,1.60
2018-08-30T02:25:00.785Z,1.80
2018-08-30T02:27:29.850Z,1.73
2018-08-30T02:29:58.668Z,1.83
2018-08-30T02:32:27.299Z,1.67
2018-08-30T02:34:56.180Z,2.30
2018-08-30T02:37:25.080Z,1.50
2018-08-30T02:39:53.733Z,1.90
2018-08-30T02:42:22.319Z,2.10
2018-08-30T02:44:50.901Z,2.00
2018-08-30T02:47:19.502Z,1.87
2018-08-30T02:49:48.171Z,1.73
2018-08-30T02:52:16.765Z,2.00
2018-08-30T02:54:46.208Z,1.83
2018-08-30T02:57:14.841Z,2.13
2018-08-30T02:59:43.425Z,1.83
2018-08-30T03:02:12.030Z,2.27
2018-08-30T03:04:41.399Z,1.90
2018-08-30T03:07:09.994Z,2.00
2018-08-30T03:09:38.586Z,2.00
2018-08-30T03:12:07.175Z,2.10
2018-08-30T03:14:36.005Z,2.13
2018-08-30T03:17:05.266Z,2.03
2018-08-30T03:19:33.810Z,2.20
2018-08-30T03:22:02.517Z,2.63
2018-08-30T03:24:31.122Z,2.40
2018-08-30T03:26:59.749Z,2.80
2018-08-30T03:29:32.590Z,2.47
2018-08-30T03:32:01.301Z,2.60
2018-08-30T03:34:30.004Z,2.83
2018-08-30T03:36:59.658Z,2.83
2018-08-30T03:39:28.343Z,2.60
2018-08-30T03:41:57.648Z,2.90
2018-08-30T03:44:26.245Z,2.67
2018-08-30T03:46:55.432Z,3.00
2018-08-30T03:49:24.088Z,3.00
2018-08-30T03:51:52.807Z,3.33
2018-08-30T03:54:22.729Z,2.87
2018-08-30T03:56:51.549Z,3.00
2018-08-30T03:59:20.724Z,2.83
2018-08-30T04:01:50.109Z,3.07
2018-08-30T04:04:18.701Z,3.67
2018-08-30T04:06:48.207Z,2.90
2018-08-30T04:09:16.813Z,3.10
2018-08-30T04:11:45.372Z,3.37
2018-08-30T04:14:14.015Z,3.43
2018-08-30T04:16:43.409Z,3.00
2018-08-30T04:19:12.014Z,3.00
2018-08-30T04:21:41.271Z,3.40
2018-08-30T04:24:11.008Z,4.03
2018-08-30T04:26:40.316Z,3.17
2018-08-30T04:29:09.002Z,3.10
2018-08-30T04:31:38.767Z,2.97
2018-08-30T04:34:08.146Z,3.20
2018-08-30T04:36:36.799Z,3.60
2018-08-30T04:39:08.000Z,3.17
2018-08-30T04:41:36.917Z,3.10
2018-08-30T04:44:05.758Z,2.90
2018-08-30T04:46:34.428Z,3.57
2018-08-30T04:49:03.165Z,3.50
2018-08-30T04:51:32.274Z,3.60
2018-08-30T04:54:01.071Z,2.77
2018-08-30T04:56:29.917Z,3.47
2018-08-30T04:58:58.515Z,3.07
2018-08-30T05:01:28.039Z,3.00
2018-08-30T05:03:58.733Z,2.93
2018-08-30T05:06:27.424Z,3.23
2018-08-30T05:08:56.220Z,3.20
2018-08-30T05:11:25.670Z,2.60
2018-08-30T05:13:54.924Z,2.87
2018-08-30T05:16:23.662Z,3.00
2018-08-30T05:18:52.282Z,2.67
2018-08-30T05:21:20.884Z,3.27
2018-08-30T05:23:49.585Z,2.70
2018-08-30T05:26:18.238Z,2.70
2018-08-30T05:28:47.065Z,2.77
2018-08-30T05:31:15.744Z,3.03
2018-08-30T05:33:44.499Z,2.73
2018-08-30T05:36:13.199Z,2.63
2018-08-30T05:38:42.590Z,2.77
2018-08-30T05:41:11.152Z,2.20
2018-08-30T05:43:39.763Z,2.90
2018-08-30T05:46:08.365Z,3.40
2018-08-30T05:48:37.067Z,2.87
2018-08-30T05:51:06.116Z,2.60
2018-08-30T05:53:34.817Z,2.77
2018-08-30T05:56:03.929Z,2.60
2018-08-30T05:58:32.648Z,2.87
2018-08-30T06:01:01.405Z,2.73
2018-08-30T06:03:30.059Z,3.13
2018-08-30T06:05:58.652Z,3.43
2018-08-30T06:08:27.260Z,4.27
2018-08-30T06:10:55.863Z,2.77
2018-08-30T06:13:25.233Z,2.90
2018-08-30T06:15:54.653Z,3.37
2018-08-30T06:18:23.652Z,3.33
2018-08-30T06:20:52.577Z,3.10
2018-08-30T06:23:21.429Z,3.00
2018-08-30T06:25:50.124Z,3.10
2018-08-30T06:28:19.671Z,3.10
2018-08-30T06:30:48.930Z,2.93
2018-08-30T06:33:17.830Z,3.20
2018-08-30T06:35:46.755Z,3.40
2018-08-30T06:38:15.425Z,2.63
2018-08-30T06:40:44.646Z,3.17
2018-08-30T06:43:13.472Z,3.43
2018-08-30T06:45:42.237Z,3.33
2018-08-30T06:48:10.867Z,3.20
2018-08-30T06:50:40.197Z,2.90
2018-08-30T06:53:08.837Z,2.77
2018-08-30T06:55:37.495Z,3.33
2018-08-30T06:58:06.119Z,3.30
2018-08-30T07:00:35.402Z,2.93
2018-08-30T07:03:04.169Z,2.93
2018-08-30T07:05:32.828Z,3.20
2018-08-30T07:08:01.647Z,3.17
2018-08-30T07:10:30.211Z,3.07
2018-08-30T07:12:59.125Z,2.80
2018-08-30T07:15:27.796Z,2.83
2018-08-30T07:17:56.582Z,4.03
2018-08-30T07:20:25.897Z,3.10
2018-08-30T07:22:55.139Z,3.20
2018-08-30T07:25:23.812Z,2.70
2018-08-30T07:27:53.006Z,3.27
2018-08-30T07:30:21.871Z,3.63
2018-08-30T07:32:50.444Z,3.60
2018-08-30T07:35:19.137Z,3.93
2018-08-30T07:37:48.708Z,4.17
2018-08-30T07:40:18.077Z,3.50
2018-08-30T07:42:46.650Z,4.00
2018-08-30T07:45:15.267Z,4.40
2018-08-30T07:47:43.848Z,2.90
2018-08-30T07:50:13.163Z,3.27
2018-08-30T07:52:41.792Z,3.20
2018-08-30T07:55:11.254Z,3.50
2018-08-30T07:57:40.624Z,3.27
2018-08-30T08:00:09.397Z,3.60
2018-08-30T08:02:38.936Z,4.00
2018-08-30T08:05:07.542Z,3.87
2018-08-30T08:07:36.279Z,3.90
2018-08-30T08:10:05.757Z,3.40
2018-08-30T08:12:34.424Z,3.70
2018-08-30T08:15:03.786Z,3.70
2018-08-30T08:17:33.190Z,3.83
2018-08-30T08:20:01.797Z,3.30
2018-08-30T08:22:30.461Z,2.57
2018-08-30T08:24:59.716Z,3.03
2018-08-30T08:27:28.339Z,2.87
2018-08-30T08:29:58.172Z,2.67
2018-08-30T08:32:27.462Z,3.37
2018-08-30T08:34:56.060Z,2.70
2018-08-30T08:37:25.376Z,3.17
2018-08-30T08:39:54.073Z,2.93
2018-08-30T08:42:22.750Z,2.80
2018-08-30T08:44:52.040Z,3.07
2018-08-30T08:47:20.643Z,2.83
2018-08-30T08:49:50.200Z,2.77
2018-08-30T08:52:18.821Z,2.77
2018-08-30T08:54:47.562Z,2.70
2018-08-30T08:57:16.651Z,3.00
2018-08-30T08:59:45.389Z,3.07
2018-08-30T09:02:14.084Z,2.60
2018-08-30T09:04:43.285Z,3.10
2018-08-30T09:07:11.901Z,2.80
2018-08-30T09:09:40.503Z,3.37
2018-08-30T09:12:09.890Z,2.23
2018-08-30T09:14:38.550Z,3.00
2018-08-30T09:17:07.943Z,2.97
2018-08-30T09:19:36.574Z,2.80
2018-08-30T09:22:05.196Z,2.70
2018-08-30T09:24:34.536Z,2.80
2018-08-30T09:27:03.173Z,2.50
2018-08-30T09:29:32.578Z,2.23
2018-08-30T09:32:01.417Z,2.57
2018-08-30T09:34:30.148Z,2.70
2018-08-30T09:36:58.783Z,3.00
2018-08-30T09:39:27.749Z,2.97
2018-08-30T09:41:56.360Z,3.20
2018-08-30T09:44:25.917Z,2.77
2018-08-30T09:46:54.539Z,2.73
2018-08-30T09:49:23.945Z,3.13
2018-08-30T09:51:52.617Z,3.00
2018-08-30T09:54:21.243Z,3.40
2018-08-30T09:56:50.619Z,3.20
2018-08-30T09:59:19.421Z,3.03
2018-08-30T10:01:51.403Z,3.43
2018-08-30T10:04:21.068Z,3.17
2018-08-30T10:06:49.714Z,2.93
2018-08-30T10:09:18.367Z,3.33
2018-08-30T10:11:46.930Z,3.70
2018-08-30T10:14:15.547Z,3.07
2018-08-30T10:16:44.234Z,3.00
2018-08-30T10:19:13.314Z,3.67
2018-08-30T10:21:42.085Z,3.10
2018-08-30T10:24:10.690Z,3.80
2018-08-30T10:26:40.023Z,3.50
2018-08-30T10:29:09.271Z,3.33
2018-08-30T10:31:37.965Z,3.67
2018-08-30T10:34:06.698Z,3.23
2018-08-30T10:36:35.369Z,3.73
2018-08-30T10:39:05.908Z,3.80
2018-08-30T10:41:34.656Z,3.23
2018-08-30T10:44:03.786Z,3.67
2018-08-30T10:46:32.475Z,3.73
2018-08-30T10:49:01.263Z,3.67
2018-08-30T10:51:30.722Z,4.00
2018-08-30T10:54:00.185Z,3.77
2018-08-30T10:56:29.627Z,4.03
2018-08-30T10:58:58.440Z,3.70
2018-08-30T11:01:28.051Z,3.40
2018-08-30T11:03:57.094Z,4.17
2018-08-30T11:06:25.843Z,3.73
2018-08-30T11:08:54.476Z,3.80
2018-08-30T11:11:24.042Z,4.03
2018-08-30T11:13:52.695Z,3.90
2018-08-30T11:16:22.228Z,4.00
2018-08-30T11:18:51.900Z,4.00
2018-08-30T11:21:20.986Z,3.70
2018-08-30T11:23:49.684Z,3.83
2018-08-30T11:26:18.335Z,4.13
2018-08-30T11:28:51.224Z,4.00
2018-08-30T11:31:19.891Z,3.93
2018-08-30T11:33:48.570Z,4.40
2018-08-30T11:36:17.174Z,4.60
2018-08-30T11:38:45.889Z,4.20
2018-08-30T11:41:14.496Z,4.10
2018-08-30T11:43:43.163Z,4.30
2018-08-30T11:46:11.863Z,4.30
2018-08-30T11:48:40.608Z,4.60
2018-08-30T11:51:09.284Z,4.37
2018-08-30T11:53:38.188Z,4.47
2018-08-30T11:56:06.847Z,4.40
2018-08-30T11:58:36.335Z,4.20
2018-08-30T12:01:05.905Z,4.60
2018-08-30T12:03:35.387Z,5.00
2018-08-30T12:06:04.033Z,4.37
2018-08-30T12:08:33.485Z,4.90
2018-08-30T12:11:03.366Z,4.60
2018-08-30T12:13:31.843Z,4.80
2018-08-30T12:16:00.881Z,4.80
2018-08-30T12:18:29.535Z,4.87
2018-08-30T12:20:58.348Z,4.97
2018-08-30T12:23:27.568Z,5.00
2018-08-30T12:25:56.249Z,4.50
2018-08-30T12:28:25.571Z,5.57
2018-08-30T12:30:54.267Z,4.80
2018-08-30T12:33:22.944Z,5.07
2018-08-30T12:35:51.790Z,5.40
2018-08-30T12:38:21.260Z,4.97
2018-08-30T12:40:50.836Z,5.00
2018-08-30T12:43:20.228Z,5.17
2018-08-30T12:45:49.858Z,6.07
2018-08-30T12:48:20.653Z,5.97
2018-08-30T12:50:49.797Z,5.20
2018-08-30T12:53:19.196Z,6.17
2018-08-30T12:55:47.924Z,5.50
2018-08-30T12:58:16.693Z,5.80
2018-08-30T13:00:46.761Z,5.90
2018-08-30T13:03:16.131Z,5.00
2018-08-30T13:05:45.394Z,5.90
2018-08-30T13:08:14.701Z,6.00
2018-08-30T13:10:44.566Z,5.90
2018-08-30T13:13:13.612Z,5.77
2018-08-30T13:15:42.907Z,5.80
2018-08-30T13:18:11.442Z,5.23
2018-08-30T13:20:40.118Z,5.80
2018-08-30T13:23:09.047Z,5.60
2018-08-30T13:25:37.924Z,6.40
2018-08-30T13:28:07.268Z,7.43
2018-08-30T13:30:36.729Z,6.70
2018-08-30T13:33:06.456Z,7.30
2018-08-30T13:35:36.083Z,6.60
2018-08-30T13:38:05.057Z,6.63
2018-08-30T13:40:34.243Z,6.03
2018-08-30T13:43:02.869Z,6.23
2018-08-30T13:45:32.301Z,6.73
2018-08-30T13:48:00.888Z,6.27
2018-08-30T13:50:29.726Z,6.87
2018-08-30T13:52:58.561Z,6.40
2018-08-30T13:55:27.484Z,6.43
2018-08-30T13:57:57.165Z,6.47
2018-08-30T14:00:25.615Z,6.53
2018-08-30T14:02:54.499Z,6.70
2018-08-30T14:05:23.331Z,6.83
2018-08-30T14:07:51.958Z,6.77
2018-08-30T14:10:21.546Z,7.23
2018-08-30T14:12:50.369Z,6.87
2018-08-30T14:15:19.149Z,6.67
2018-08-30T14:17:47.905Z,6.87
2018-08-30T14:20:16.592Z,7.20
2018-08-30T14:22:45.966Z,6.30
2018-08-30T14:25:14.733Z,6.70
2018-08-30T14:27:43.869Z,6.97
2018-08-30T14:30:12.503Z,6.73
2018-08-30T14:32:41.208Z,7.30
2018-08-30T14:35:11.067Z,6.83
2018-08-30T14:37:40.572Z,7.20
2018-08-30T14:40:10.748Z,7.00
2018-08-30T14:42:39.404Z,6.57
2018-08-30T14:45:09.099Z,7.50
2018-08-30T14:47:38.394Z,7.20
2018-08-30T14:50:08.935Z,7.57
2018-08-30T14:52:38.491Z,7.63
2018-08-30T14:55:07.980Z,7.00
2018-08-30T14:57:36.767Z,7.63
2018-08-30T15:00:05.529Z,7.63
2018-08-30T15:02:35.017Z,8.23
2018-08-30T15:05:05.482Z,7.67
2018-08-30T15:07:34.038Z,8.53
2018-08-30T15:10:03.400Z,7.50
2018-08-30T15:12:32.266Z,7.40
2018-08-30T15:15:01.556Z,7.20
2018-08-30T15:17:31.124Z,6.93
2018-08-30T15:20:00.811Z,7.55
2018-08-30T15:22:30.020Z,7.43
2018-08-30T15:24:58.644Z,7.00
2018-08-30T15:27:27.353Z,7.20
2018-08-30T15:29:56.105Z,7.03
2018-08-30T15:32:25.549Z,7.37
2018-08-30T15:34:54.660Z,7.97
2018-08-30T15:37:23.321Z,7.70
2018-08-30T15:39:52.045Z,7.50
2018-08-30T15:42:21.638Z,7.70
2018-08-30T15:44:50.217Z,7.30
2018-08-30T15:47:19.544Z,7.27
2018-08-30T15:49:48.359Z,7.60
2018-08-30T15:52:18.525Z,7.87
2018-08-30T15:54:47.711Z,7.60
2018-08-30T15:57:16.674Z,8.00
2018-08-30T15:59:45.457Z,7.27
2018-08-30T16:02:14.462Z,7.83
2018-08-30T16:04:43.256Z,7.73
2018-08-30T16:07:12.061Z,8.80
2018-08-30T16:09:40.652Z,7.90
2018-08-30T16:12:10.075Z,7.30
2018-08-30T16:14:39.593Z,7.60
2018-08-30T16:17:08.455Z,8.30
2018-08-30T16:19:37.427Z,7.47
2018-08-30T16:22:06.317Z,8.00
2018-08-30T16:24:35.850Z,7.83
2018-08-30T16:27:05.044Z,8.57
2018-08-30T16:29:35.077Z,8.90
2018-08-30T16:32:03.910Z,7.70
2018-08-30T16:34:32.789Z,8.07
2018-08-30T16:37:01.709Z,9.27
2018-08-30T16:39:31.164Z,8.53
2018-08-30T16:42:00.640Z,8.57
2018-08-30T16:44:30.065Z,6.27
2018-08-30T16:46:58.789Z,6.43
2018-08-30T16:49:27.693Z,6.00
